createdAt,value
2022-08-25T00:00:24.040Z,19.83
2022-08-25T00:15:23.989Z,19.50
2022-08-25T00:30:24.241Z,19.22
2022-08-25T00:45:24.165Z,19.15
2022-08-25T01:00:24.743Z,18.60
2022-08-25T01:15:24.296Z,18.98
2022-08-25T01:30:24.139Z,18.52
2022-08-25T01:45:24.203Z,18.67
2022-08-25T02:00:24.326Z,18.35
2022-08-25T02:15:24.199Z,18.03
2022-08-25T02:30:33.245Z,17.95
2022-08-25T02:45:33.447Z,17.88
2022-08-25T03:00:33.439Z,17.65
2022-08-25T03:15:23.380Z,17.48
2022-08-25T03:30:23.299Z,17.35
2022-08-25T03:45:23.297Z,17.30
2022-08-25T04:00:23.430Z,16.98
2022-08-25T04:15:23.371Z,16.93
2022-08-25T04:30:23.419Z,16.77
2022-08-25T04:45:23.537Z,17.25
2022-08-25T05:00:26.299Z,16.55
2022-08-25T05:15:23.519Z,16.45
2022-08-25T05:30:23.571Z,16.43
2022-08-25T05:45:23.676Z,16.33
2022-08-25T06:00:29.089Z,16.53
2022-08-25T06:15:23.555Z,16.65
2022-08-25T06:30:25.710Z,17.30
2022-08-25T06:45:23.629Z,19.42
2022-08-25T07:00:30.361Z,20.92
2022-08-25T07:15:23.719Z,22.38
2022-08-25T07:30:23.870Z,23.92
2022-08-25T07:45:23.796Z,24.10
2022-08-25T08:00:28.087Z,24.22
2022-08-25T08:15:23.701Z,25.20
2022-08-25T08:30:26.203Z,24.27
2022-08-25T08:45:23.964Z,24.38
2022-08-25T09:00:25.424Z,24.17
2022-08-25T09:15:24.041Z,24.62
2022-08-25T09:30:25.029Z,24.23
2022-08-25T09:45:24.059Z,24.97
2022-08-25T10:00:26.789Z,25.03
2022-08-25T10:15:29.661Z,25.27
2022-08-25T10:30:23.836Z,25.80
2022-08-25T10:45:23.830Z,25.97
2022-08-25T11:00:24.891Z,26.08
2022-08-25T11:15:23.838Z,26.55
2022-08-25T11:30:23.894Z,27.30
2022-08-25T11:45:24.002Z,27.90
2022-08-25T12:00:29.544Z,27.23
2022-08-25T12:15:24.004Z,27.35
2022-08-25T12:30:23.956Z,27.62
2022-08-25T12:45:24.220Z,27.75
2022-08-25T13:00:29.311Z,28.03
2022-08-25T13:15:23.954Z,28.63
2022-08-25T13:30:24.417Z,28.95
2022-08-25T13:45:33.109Z,28.98
2022-08-25T14:00:33.149Z,28.80
2022-08-25T14:15:23.147Z,28.73
2022-08-25T14:30:29.035Z,29.10
2022-08-25T14:45:23.234Z,29.27
2022-08-25T15:00:34.790Z,29.75
2022-08-25T15:15:23.283Z,30.07
2022-08-25T15:30:30.726Z,31.00
2022-08-25T15:45:23.177Z,30.85
2022-08-25T16:00:31.985Z,30.83
2022-08-25T16:15:24.128Z,31.53
2022-08-25T16:30:23.275Z,31.25
2022-08-25T16:45:23.235Z,31.20
2022-08-25T17:00:23.459Z,29.50
2022-08-25T17:15:23.513Z,29.10
2022-08-25T17:30:24.254Z,29.70
2022-08-25T17:45:23.456Z,28.60
2022-08-25T18:00:23.382Z,27.95
2022-08-25T18:15:23.630Z,27.50
2022-08-25T18:30:23.432Z,26.83
2022-08-25T18:45:23.670Z,26.43
2022-08-25T19:00:32.267Z,25.52
2022-08-25T19:15:24.925Z,25.35
2022-08-25T19:30:23.917Z,24.92
2022-08-25T19:45:23.737Z,24.45
2022-08-25T20:00:27.680Z,24.02
2022-08-25T20:15:24.037Z,23.62
2022-08-25T20:30:25.695Z,23.80
2022-08-25T20:45:23.724Z,23.22
2022-08-25T21:00:24.886Z,22.92
2022-08-25T21:15:23.934Z,22.75
2022-08-25T21:30:24.157Z,22.53
2022-08-25T21:45:23.720Z,22.22
2022-08-25T22:00:41.259Z,23.00
2022-08-25T22:15:23.709Z,21.85
2022-08-25T22:30:23.855Z,21.25
2022-08-25T22:45:23.941Z,21.08
2022-08-25T23:00:25.136Z,20.65
2022-08-25T23:15:24.045Z,21.15
2022-08-25T23:30:27.140Z,20.52
2022-08-25T23:45:23.984Z,20.25
